createdAt,value
2023-05-09T00:01:48.202Z,31.70
2023-05-09T00:05:52.084Z,35.20
2023-05-09T00:09:56.671Z,33.30
2023-05-09T00:14:00.480Z,35.40
2023-05-09T00:18:04.307Z,32.60
2023-05-09T00:22:08.189Z,39.50
2023-05-09T00:26:10.966Z,33.30
2023-05-09T00:30:15.551Z,33.40
2023-05-09T00:34:19.390Z,35.00
2023-05-09T00:38:16.498Z,30.30
2023-05-09T00:42:20.272Z,32.80
2023-05-09T00:46:24.867Z,35.00
2023-05-09T00:50:28.713Z,34.10
2023-05-09T00:54:33.695Z,35.60
2023-05-09T00:58:37.498Z,32.20
2023-05-09T01:02:41.529Z,29.90
2023-05-09T01:06:26.918Z,29.40
2023-05-09T01:10:07.980Z,27.80
2023-05-09T01:13:56.279Z,32.10
2023-05-09T01:17:59.335Z,30.20
2023-05-09T01:21:44.804Z,25.60
2023-05-09T01:25:47.384Z,30.80
2023-05-09T01:29:39.767Z,30.30
2023-05-09T01:33:30.176Z,31.70
2023-05-09T01:37:19.571Z,28.40
2023-05-09T01:41:13.467Z,26.00
2023-05-09T01:45:15.706Z,30.20
2023-05-09T01:48:47.784Z,29.60
2023-05-09T01:52:43.344Z,30.00
2023-05-09T01:56:47.500Z,29.90
2023-05-09T02:00:34.314Z,28.20
2023-05-09T02:03:54.640Z,26.70
2023-05-09T02:07:41.495Z,28.10
2023-05-09T02:11:23.879Z,28.60
2023-05-09T02:15:00.950Z,29.10
2023-05-09T02:18:19.259Z,28.90
2023-05-09T02:22:12.886Z,27.70
2023-05-09T02:26:05.500Z,29.80
2023-05-09T02:29:57.562Z,27.70
2023-05-09T02:33:42.713Z,29.20
2023-05-09T02:37:26.072Z,28.70
2023-05-09T02:41:18.406Z,29.90
2023-05-09T02:45:01.461Z,31.30
2023-05-09T02:48:36.025Z,32.20
2023-05-09T02:52:19.738Z,34.90
2023-05-09T02:56:04.460Z,30.90
2023-05-09T02:59:41.488Z,35.20
2023-05-09T03:03:38.211Z,33.70
2023-05-09T03:07:30.387Z,30.90
2023-05-09T03:11:10.902Z,29.30
2023-05-09T03:15:08.294Z,30.10
2023-05-09T03:18:44.054Z,27.50
2023-05-09T03:22:27.552Z,29.30
2023-05-09T03:26:31.638Z,29.90
2023-05-09T03:30:08.458Z,29.20
2023-05-09T03:33:52.370Z,33.80
2023-05-09T03:37:42.750Z,34.70
2023-05-09T03:41:36.864Z,33.20
2023-05-09T03:45:33.702Z,33.60
2023-05-09T03:49:15.923Z,37.70
2023-05-09T03:52:37.621Z,36.00
2023-05-09T03:56:41.707Z,35.80
2023-05-09T04:00:26.010Z,38.50
2023-05-09T04:03:43.286Z,37.80
2023-05-09T04:07:47.266Z,35.30
2023-05-09T04:11:09.779Z,39.00
2023-05-09T04:14:52.106Z,37.30
2023-05-09T04:18:46.103Z,37.90
2023-05-09T04:22:23.175Z,36.50
2023-05-09T04:25:49.152Z,36.30
2023-05-09T04:29:31.804Z,35.70
2023-05-09T04:32:50.880Z,44.10
2023-05-09T04:36:34.863Z,38.90
2023-05-09T04:40:09.338Z,40.00
2023-05-09T04:43:36.169Z,38.50
2023-05-09T04:47:22.781Z,38.40
2023-05-09T04:51:08.191Z,36.60
2023-05-09T04:54:44.316Z,39.90
2023-05-09T04:58:10.198Z,40.20
2023-05-09T05:02:06.683Z,38.40
2023-05-09T05:05:35.993Z,37.70
2023-05-09T05:09:03.703Z,32.30
2023-05-09T05:12:22.479Z,33.30
2023-05-09T05:16:04.215Z,30.30
2023-05-09T05:19:31.047Z,28.60
2023-05-09T05:22:57.226Z,28.00
2023-05-09T05:26:31.932Z,29.50
2023-05-09T05:29:21.862Z,16.50
2023-05-09T05:32:52.155Z,17.60
2023-05-09T05:36:08.433Z,20.50
2023-05-09T05:39:29.565Z,18.50
2023-05-09T05:42:35.463Z,18.70
2023-05-09T05:45:46.050Z,17.30
2023-05-09T05:48:52.884Z,17.00
2023-05-09T05:52:06.488Z,14.80
2023-05-09T05:55:30.526Z,16.60
2023-05-09T05:58:41.904Z,17.90
2023-05-09T06:01:59.268Z,14.60
2023-05-09T06:05:16.119Z,15.70
2023-05-09T06:08:17.055Z,22.30
2023-05-09T06:11:31.549Z,15.30
2023-05-09T06:15:15.817Z,13.90
2023-05-09T06:18:07.174Z,14.90
2023-05-09T06:21:10.846Z,16.90
2023-05-09T06:24:11.899Z,13.40
2023-05-09T06:27:29.381Z,11.70
2023-05-09T06:30:40.552Z,14.10
2023-05-09T06:33:38.281Z,11.80
2023-05-09T06:36:58.969Z,14.80
2023-05-09T06:40:12.727Z,11.40
2023-05-09T06:44:05.188Z,9.90
2023-05-09T06:46:59.483Z,11.30
2023-05-09T06:50:25.737Z,10.00
2023-05-09T06:54:02.235Z,16.00
2023-05-09T06:57:21.040Z,10.00
2023-05-09T07:00:24.554Z,16.80
2023-05-09T07:03:47.031Z,13.10
2023-05-09T07:07:13.556Z,20.80
2023-05-09T07:10:22.097Z,15.00
2023-05-09T07:13:39.550Z,13.10
2023-05-09T07:16:47.091Z,8.50
2023-05-09T07:19:36.314Z,11.80
2023-05-09T07:22:36.414Z,9.50
2023-05-09T07:25:52.383Z,9.90
2023-05-09T07:29:20.210Z,12.40
2023-05-09T07:32:28.104Z,10.20
2023-05-09T07:35:23.899Z,12.70
2023-05-09T07:38:23.496Z,9.00
2023-05-09T07:41:24.471Z,8.40
2023-05-09T07:45:10.361Z,6.80
2023-05-09T07:48:13.686Z,16.10
2023-05-09T07:51:10.376Z,15.50
2023-05-09T07:54:35.264Z,8.20
2023-05-09T07:57:53.110Z,11.50
2023-05-09T08:00:59.063Z,10.90
2023-05-09T08:03:56.778Z,14.10
2023-05-09T08:07:20.499Z,12.30
2023-05-09T08:10:27.972Z,8.50
2023-05-09T08:14:25.399Z,7.10
2023-05-09T08:17:21.120Z,17.60
2023-05-09T08:20:27.077Z,16.10
2023-05-09T08:24:01.858Z,15.70
2023-05-09T08:27:08.084Z,6.90
2023-05-09T08:29:57.446Z,5.20
2023-05-09T08:32:53.412Z,7.70
2023-05-09T08:35:42.518Z,16.00
2023-05-09T08:38:47.702Z,12.80
2023-05-09T08:41:47.449Z,11.50
2023-05-09T08:44:34.275Z,9.00
2023-05-09T08:47:21.757Z,8.10
2023-05-09T08:50:08.658Z,8.90
2023-05-09T08:52:55.275Z,16.80
2023-05-09T08:55:41.778Z,11.00
2023-05-09T08:58:25.314Z,21.60
2023-05-09T09:01:34.550Z,9.00
2023-05-09T09:04:38.324Z,11.00
2023-05-09T09:07:36.668Z,11.80
2023-05-09T09:10:52.822Z,10.60
2023-05-09T09:13:46.598Z,8.80
2023-05-09T09:16:47.217Z,11.60
2023-05-09T09:20:31.698Z,7.40
2023-05-09T09:23:20.060Z,10.10
2023-05-09T09:26:29.841Z,5.90
2023-05-09T09:29:52.928Z,4.90
2023-05-09T09:32:48.480Z,10.90
2023-05-09T09:36:15.762Z,8.10
2023-05-09T09:39:14.128Z,12.70
2023-05-09T09:42:23.862Z,7.60
2023-05-09T09:45:39.654Z,8.10
2023-05-09T09:49:02.219Z,9.70
2023-05-09T09:52:03.940Z,11.90
2023-05-09T09:54:48.030Z,5.20
2023-05-09T09:57:46.568Z,8.30
2023-05-09T10:00:33.057Z,7.40
2023-05-09T10:03:55.453Z,5.00
2023-05-09T10:07:29.286Z,13.90
2023-05-09T10:10:46.336Z,7.10
2023-05-09T10:14:12.274Z,10.20
2023-05-09T10:17:32.697Z,17.40
2023-05-09T10:20:42.217Z,9.30
2023-05-09T10:23:32.918Z,10.70
2023-05-09T10:26:32.860Z,7.40
2023-05-09T10:29:31.862Z,16.30
2023-05-09T10:32:46.496Z,13.70
2023-05-09T10:36:12.526Z,5.90
2023-05-09T10:39:00.189Z,13.20
2023-05-09T10:41:49.974Z,5.50
2023-05-09T10:45:09.293Z,9.60
2023-05-09T10:48:42.516Z,12.00
2023-05-09T10:52:00.847Z,12.00
2023-05-09T10:55:04.414Z,10.40
2023-05-09T10:58:13.807Z,9.80
2023-05-09T11:01:30.348Z,9.00
2023-05-09T11:04:26.962Z,11.10
2023-05-09T11:08:18.286Z,17.00
2023-05-09T11:11:43.982Z,10.00
2023-05-09T11:15:07.217Z,6.60
2023-05-09T11:18:19.085Z,10.90
2023-05-09T11:21:16.863Z,5.10
2023-05-09T11:24:32.607Z,10.20
2023-05-09T11:27:21.001Z,7.40
2023-05-09T11:30:35.583Z,8.60
2023-05-09T11:33:31.514Z,4.40
2023-05-09T11:39:25.395Z,11.80
2023-05-09T11:42:55.371Z,10.60
2023-05-09T11:45:53.504Z,9.30
2023-05-09T11:48:58.257Z,8.70
2023-05-09T11:52:22.406Z,4.40
2023-05-09T11:55:35.662Z,8.30
2023-05-09T11:58:42.614Z,5.80
2023-05-09T12:02:05.928Z,8.60
2023-05-09T12:05:31.222Z,7.90
2023-05-09T12:08:42.645Z,4.90
2023-05-09T12:12:12.546Z,5.90
2023-05-09T12:15:25.046Z,5.00
2023-05-09T12:22:18.329Z,9.10
2023-05-09T12:25:32.573Z,11.60
2023-05-09T12:28:21.871Z,22.10
2023-05-09T12:31:18.915Z,13.20
2023-05-09T12:34:52.030Z,8.40
2023-05-09T12:38:25.661Z,14.50
2023-05-09T12:41:37.086Z,8.30
2023-05-09T12:45:01.632Z,6.40
2023-05-09T12:48:01.575Z,9.20
2023-05-09T12:50:47.826Z,8.60
2023-05-09T12:54:08.110Z,9.10
2023-05-09T12:56:53.282Z,7.40
2023-05-09T12:59:47.196Z,8.20
2023-05-09T13:02:51.020Z,17.30
2023-05-09T13:06:27.865Z,8.60
2023-05-09T13:09:34.116Z,10.70
2023-05-09T13:12:26.652Z,6.80
2023-05-09T13:15:52.253Z,11.20
2023-05-09T13:18:54.938Z,10.80
2023-05-09T13:22:19.445Z,4.90
2023-05-09T13:25:17.082Z,8.40
2023-05-09T13:28:22.783Z,11.80
2023-05-09T13:31:42.095Z,12.60
2023-05-09T13:35:01.755Z,7.00
2023-05-09T13:38:15.199Z,5.80
2023-05-09T13:41:12.845Z,9.10
2023-05-09T13:44:13.015Z,7.40
2023-05-09T13:47:14.773Z,6.90
2023-05-09T13:50:17.094Z,8.00
2023-05-09T13:53:19.592Z,18.10
2023-05-09T13:56:13.176Z,6.10
2023-05-09T14:00:06.097Z,14.30
2023-05-09T14:02:55.789Z,9.70
2023-05-09T14:05:54.294Z,21.20
2023-05-09T14:08:40.167Z,5.70
2023-05-09T14:11:37.518Z,9.80
2023-05-09T14:14:48.781Z,6.10
2023-05-09T14:18:32.571Z,6.70
2023-05-09T14:21:26.170Z,10.30
2023-05-09T14:24:51.204Z,11.80
2023-05-09T14:28:04.059Z,15.80
2023-05-09T14:31:30.062Z,9.00
2023-05-09T14:34:29.917Z,2.80
2023-05-09T14:37:48.751Z,6.30
2023-05-09T14:41:05.319Z,8.80
2023-05-09T14:47:23.247Z,13.50
2023-05-09T14:50:36.732Z,9.60
2023-05-09T14:53:45.510Z,7.70
2023-05-09T14:57:04.276Z,20.10
2023-05-09T15:00:24.361Z,4.80
2023-05-09T15:04:05.505Z,14.20
2023-05-09T15:07:09.045Z,9.40
2023-05-09T15:10:05.970Z,7.40
2023-05-09T15:13:00.640Z,7.10
2023-05-09T15:15:52.636Z,15.10
2023-05-09T15:19:05.862Z,2.70
2023-05-09T15:22:34.785Z,5.90
2023-05-09T15:25:57.410Z,7.40
2023-05-09T15:28:52.531Z,17.00
2023-05-09T15:31:39.593Z,4.60
2023-05-09T15:34:57.464Z,9.30
2023-05-09T15:37:41.333Z,9.60
2023-05-09T15:40:36.431Z,9.40
2023-05-09T15:43:29.871Z,8.80
2023-05-09T15:46:26.513Z,8.60
2023-05-09T15:49:14.669Z,12.80
2023-05-09T15:52:18.232Z,6.40
2023-05-09T15:55:08.753Z,21.60
2023-05-09T15:58:03.120Z,9.30
2023-05-09T16:01:08.098Z,5.30
2023-05-09T16:03:58.736Z,15.00
2023-05-09T16:06:44.721Z,9.40
2023-05-09T16:09:37.245Z,4.30
2023-05-09T16:12:41.190Z,8.90
2023-05-09T16:15:39.511Z,10.70
2023-05-09T16:18:43.200Z,12.60
2023-05-09T16:22:00.631Z,20.10
2023-05-09T16:25:35.308Z,21.40
2023-05-09T16:28:28.134Z,11.10
2023-05-09T16:31:36.776Z,8.30
2023-05-09T16:34:56.214Z,6.20
2023-05-09T16:38:12.766Z,7.40
2023-05-09T16:41:24.340Z,11.40
2023-05-09T16:44:13.491Z,14.00
2023-05-09T16:46:59.987Z,13.10
2023-05-09T16:50:11.176Z,8.70
2023-05-09T16:52:56.750Z,11.20
2023-05-09T16:55:54.522Z,13.50
2023-05-09T16:58:54.448Z,9.90
2023-05-09T17:02:00.013Z,15.00
2023-05-09T17:04:48.966Z,11.40
2023-05-09T17:07:57.187Z,12.00
2023-05-09T17:11:06.690Z,10.70
2023-05-09T17:14:13.056Z,6.50
2023-05-09T17:17:20.534Z,11.60
2023-05-09T17:20:34.866Z,7.00
2023-05-09T17:23:24.456Z,13.80
2023-05-09T17:26:13.157Z,9.30
2023-05-09T17:29:03.669Z,11.10
2023-05-09T17:32:13.056Z,9.00
2023-05-09T17:35:26.064Z,8.30
2023-05-09T17:38:11.909Z,11.60
2023-05-09T17:41:03.768Z,12.40
2023-05-09T17:44:11.591Z,6.20
2023-05-09T17:47:21.048Z,8.10
2023-05-09T17:50:55.982Z,7.80
2023-05-09T17:54:04.279Z,7.50
2023-05-09T17:57:03.734Z,10.10
2023-05-09T18:00:00.035Z,10.80
2023-05-09T18:03:00.954Z,5.30
2023-05-09T18:06:00.452Z,10.20
2023-05-09T18:09:00.152Z,7.70
2023-05-09T18:11:45.967Z,13.40
2023-05-09T18:14:33.393Z,7.80
2023-05-09T18:18:30.083Z,8.80
2023-05-09T18:21:51.039Z,7.40
2023-05-09T18:24:39.467Z,9.60
2023-05-09T18:27:58.206Z,10.90
2023-05-09T18:31:16.690Z,12.10
2023-05-09T18:34:22.420Z,16.10
2023-05-09T18:37:24.865Z,14.80
2023-05-09T18:40:37.238Z,14.00
2023-05-09T18:43:50.757Z,25.20
2023-05-09T18:47:00.578Z,11.90
2023-05-09T18:50:33.256Z,15.00
2023-05-09T18:54:03.858Z,11.40
2023-05-09T18:57:06.180Z,18.80
2023-05-09T19:00:23.144Z,15.60
2023-05-09T19:03:12.665Z,30.10
2023-05-09T19:06:38.969Z,30.10
2023-05-09T19:10:13.348Z,21.10
2023-05-09T19:13:38.714Z,17.70
2023-05-09T19:16:50.022Z,17.80
2023-05-09T19:20:06.162Z,20.20
2023-05-09T19:23:18.355Z,16.10
2023-05-09T19:26:07.223Z,18.20
2023-05-09T19:29:08.284Z,16.80
2023-05-09T19:32:13.926Z,22.10
2023-05-09T19:35:14.804Z,18.00
2023-05-09T19:38:17.802Z,21.20
2023-05-09T19:41:36.467Z,19.40
2023-05-09T19:44:59.993Z,13.70
2023-05-09T19:47:54.904Z,21.70
2023-05-09T19:51:07.756Z,25.60
2023-05-09T19:54:16.169Z,24.30
2023-05-09T19:58:17.656Z,28.80
2023-05-09T20:01:34.912Z,24.00
2023-05-09T20:04:31.827Z,21.60
2023-05-09T20:07:38.276Z,19.00
2023-05-09T20:10:40.256Z,20.10
2023-05-09T20:13:54.681Z,20.40
2023-05-09T20:17:10.152Z,19.30
2023-05-09T20:20:20.445Z,21.20
2023-05-09T20:23:55.340Z,15.70
2023-05-09T20:26:41.787Z,15.40
2023-05-09T20:29:27.975Z,18.90
2023-05-09T20:32:20.108Z,11.40
2023-05-09T20:35:10.569Z,15.20
2023-05-09T20:38:04.951Z,17.60
2023-05-09T20:41:57.206Z,18.90
2023-05-09T20:45:43.910Z,17.90
2023-05-09T20:49:09.071Z,21.00
2023-05-09T20:53:02.759Z,16.00
2023-05-09T20:56:23.639Z,15.10
2023-05-09T21:00:07.703Z,14.30
2023-05-09T21:03:34.155Z,19.80
2023-05-09T21:07:18.173Z,15.40
2023-05-09T21:11:04.449Z,13.50
2023-05-09T21:15:08.339Z,15.70
2023-05-09T21:18:52.114Z,12.40
2023-05-09T21:22:20.145Z,21.00
2023-05-09T21:26:08.995Z,13.80
2023-05-09T21:29:51.411Z,13.70
2023-05-09T21:33:27.210Z,16.70
2023-05-09T21:37:10.765Z,13.40
2023-05-09T21:40:41.922Z,13.80
2023-05-09T21:47:20.182Z,34.50
2023-05-09T21:50:26.406Z,20.70
2023-05-09T21:53:42.663Z,15.10
2023-05-09T21:57:29.421Z,13.10
2023-05-09T22:00:46.082Z,14.30
2023-05-09T22:04:05.025Z,14.10
2023-05-09T22:07:25.987Z,20.60
2023-05-09T22:10:52.681Z,9.60
2023-05-09T22:14:03.641Z,14.60
2023-05-09T22:20:42.996Z,13.30
2023-05-09T22:24:43.804Z,13.90
2023-05-09T22:28:31.502Z,10.70
2023-05-09T22:32:08.446Z,10.30
2023-05-09T22:35:38.910Z,11.40
2023-05-09T22:38:58.205Z,17.20
2023-05-09T22:42:40.928Z,19.30
2023-05-09T22:46:44.808Z,15.90
2023-05-09T22:50:10.439Z,14.10
2023-05-09T22:53:24.994Z,20.40
2023-05-09T22:57:02.033Z,19.70
2023-05-09T23:00:55.654Z,18.30
2023-05-09T23:04:46.763Z,19.70
2023-05-09T23:08:37.935Z,17.50
2023-05-09T23:12:10.772Z,23.10
2023-05-09T23:15:49.676Z,17.00
2023-05-09T23:19:53.518Z,20.00
2023-05-09T23:23:24.965Z,21.20
2023-05-09T23:26:53.008Z,15.60
2023-05-09T23:30:54.019Z,16.80
2023-05-09T23:34:39.598Z,13.60
2023-05-09T23:37:39.019Z,22.00
2023-05-09T23:41:26.110Z,14.80
2023-05-09T23:45:12.702Z,14.70
2023-05-09T23:48:31.405Z,13.40
